AKDT,Max TemperatureF,Mean TemperatureF,Min TemperatureF,Max Dew PointF,MeanDew PointF,Min DewpointF,Max Humidity, Mean Humidity, Min Humidity, Max Sea Level PressureIn, Mean Sea Level PressureIn, Min Sea Level PressureIn, Max VisibilityMiles, Mean VisibilityMiles, Min VisibilityMiles, Max Wind SpeedMPH, Mean Wind SpeedMPH, Max Gust SpeedMPH,PrecipitationIn, CloudCover, Events, WindDirDegrees
2011-10-1,54,46,37,43,39,36,100,83,53,30.08,29.97,29.87,10,10,10,12,3,17,0.00,2,,288
2011-10-2,55,46,37,42,39,36,96,81,53,29.99,29.91,29.75,10,10,10,9,3,,0.00,1,,156
2011-10-3,57,46,35,47,40,32,89,78,55,29.73,29.48,29.18,10,10,6,14,2,36,0.12,5,Rain,80
2011-10-4,55,50,44,47,45,42,93,82,64,29.52,29.40,29.18,10,9,4,24,16,33,0.57,6,Rain,137
2011-10-5,55,48,39,45,43,39,97,85,69,29.82,29.68,29.53,10,10,10,16,10,,0.00,0,,327
2011-10-6,50,44,39,47,44,39,97,92,83,29.96,29.89,29.83,10,9,3,9,3,,0.16,8,Rain,144
2011-10-7,51,46,41,47,45,39,100,92,80,30.15,30.07,29.97,10,9,3,9,4,,0.74,7,Rain,144
2011-10-8,52,48,45,45,42,39,93,82,66,30.01,29.55,29.25,10,8,3,30,11,39,1.40,8,Rain,147
2011-10-9,51,48,46,46,44,40,97,87,77,29.81,29.68,29.42,10,9,4,16,4,22,0.26,8,Rain,142
2011-10-10,57,50,45,45,39,33,96,69,43,29.64,29.37,29.21,10,10,5,12,4,20,0.27,8,Rain,139
2011-10-11,52,49,46,49,46,44,96,88,77,29.56,29.35,29.22,10,9,6,21,5,26,1.40,8,Rain,148
2011-10-12,51,50,48,50,47,45,97,92,86,30.11,29.80,29.58,10,6,2,21,11,28,1.63,8,Rain,137
2011-10-13,48,42,35,46,42,35,100,90,80,30.16,30.13,30.11,10,10,3,14,8,23,0.60,7,Rain,145
2011-10-14,45,39,33,41,37,32,100,94,82,30.17,30.15,30.12,10,5,0,7,1,,0.00,7,Fog,145
2011-10-15,46,44,42,42,40,39,93,88,81,30.13,30.09,30.01,10,9,4,21,6,29,0.44,8,Rain,149
2011-10-16,46,45,44,45,43,40,96,90,82,30.01,29.96,29.92,10,8,3,22,13,30,0.69,8,Rain,144
2011-10-17,52,48,44,52,48,43,100,94,92,30.04,29.94,29.89,10,4,2,24,10,36,2.07,8,Rain,143
2011-10-18,54,50,46,52,49,43,100,93,77,30.00,29.93,29.90,10,6,2,25,17,37,1.34,7,Rain,135
2011-10-19,50,45,42,45,43,39,100,90,74,30.04,29.90,29.85,10,10,4,8,3,,0.06,7,Rain,148
2011-10-20,46,42,39,41,39,36,100,86,71,30.07,30.02,29.81,10,10,6,10,3,,0.08,7,Rain,148
2011-10-21,48,44,41,45,41,34,97,88,63,29.78,29.67,29.48,10,8,2,20,7,26,1.25,8,Rain,148
2011-10-22,50,46,42,47,44,39,96,90,81,29.86,29.73,29.62,10,9,4,18,10,28,1.19,7,Rain,142
2011-10-23,48,44,42,43,42,41,100,91,86,29.99,29.92,29.86,10,9,4,13,6,,0.78,8,Rain,144
2011-10-24,48,44,41,45,42,39,100,92,86,30.35,30.16,29.98,10,10,4,8,2,,0.09,8,Rain,148
2011-10-25,46,45,44,43,43,41,96,90,80,30.36,30.17,29.63,10,8,2,30,9,54,2.20,8,Rain,148
2011-10-26,48,44,41,45,40,38,93,86,71,30.10,29.81,29.53,10,9,2,24,10,31,0.56,7,Rain,140
2011-10-27,48,44,41,42,40,35,93,84,63,30.11,29.87,29.16,10,9,3,30,8,50,0.41,8,Rain,144
2011-10-28,48,45,42,43,41,38,93,85,73,29.75,29.38,29.03,10,8,4,31,17,60,1.46,7,Rain,140
2011-10-29,50,47,44,46,43,39,93,88,81,29.79,29.68,29.54,10,6,2,24,13,39,0.74,8,Rain,140
2011-10-30,48,46,42,43,41,37,93,85,77,30.00,29.71,29.59,10,10,6,12,6,17,0.55,7,Rain,135
2011-10-31,48,44,39,42,38,34,93,80,61,30.35,30.26,30.08,10,10,6,10,3,,0.04,6,Rain,143